Time;durP1;ratioP1;P1;durP2;ratioP2;P2;SDS_P1;SDS_P2;PMS_P1;PMS_P2;Temp;Humidity;BMP_temperature;BMP_pressure;BME280_temperature;BME280_humidity;BME280_pressure;Samples;Min_cycle;Max_cycle;Signal;HPM_P1;HPM_P2
2024/01/31 00:02:05;;;;;;;8.00;4.10;;;;;;;;;;5049956;28;20454;-62
2024/01/31 00:04:31;;;;;;;18.23;8.80;;;;;;;;;;5048930;28;20037;-62
2024/01/31 00:06:56;;;;;;;10.30;4.32;;;;;;;;;;5050374;28;20464;-62
2024/01/31 00:09:21;;;;;;;6.15;5.22;;;;;;;;;;5048377;28;20036;-62
2024/01/31 00:11:46;;;;;;;21.27;7.03;;;;;;;;;;5050184;28;20092;-62
2024/01/31 00:14:15;;;;;;;12.20;7.25;;;;;;;;;;5049015;28;20443;-62
2024/01/31 00:16:42;;;;;;;9.63;4.85;;;;;;;;;;5049950;28;20544;-62
2024/01/31 00:19:07;;;;;;;10.73;4.15;;;;;;;;;;5051237;28;20065;-62
2024/01/31 00:21:32;;;;;;;13.68;5.63;;;;;;;;;;5054396;28;20055;-62
2024/01/31 00:23:57;;;;;;;9.77;4.00;;;;;;;;;;5052415;28;20037;-62
2024/01/31 00:26:23;;;;;;;20.57;5.77;;;;;;;;;;5053230;28;20047;-63
2024/01/31 00:28:49;;;;;;;6.87;4.97;;;;;;;;;;5052670;28;20451;-62
2024/01/31 00:31:14;;;;;;;18.52;4.22;;;;;;;;;;5054190;28;20021;-62
2024/01/31 00:33:39;;;;;;;5.20;3.80;;;;;;;;;;5052854;28;20054;-62
2024/01/31 00:36:04;;;;;;;10.07;5.00;;;;;;;;;;5054336;28;20416;-62
2024/01/31 00:38:30;;;;;;;7.32;3.00;;;;;;;;;;5052405;28;20491;-62
2024/01/31 00:40:55;;;;;;;5.93;3.37;;;;;;;;;;5053848;28;20135;-62
2024/01/31 00:43:20;;;;;;;6.03;3.73;;;;;;;;;;5052549;28;20981;-62
2024/01/31 00:45:45;;;;;;;9.60;3.63;;;;;;;;;;5053354;28;20446;-63
2024/01/31 00:48:10;;;;;;;15.17;4.70;;;;;;;;;;5052386;28;20439;-63
2024/01/31 00:50:35;;;;;;;6.20;4.45;;;;;;;;;;5053870;28;20498;-63
2024/01/31 00:53:01;;;;;;;7.57;4.20;;;;;;;;;;5053472;28;20016;-63
2024/01/31 00:55:26;;;;;;;12.40;4.07;;;;;;;;;;5052456;28;20488;-63
2024/01/31 00:57:51;;;;;;;10.00;5.87;;;;;;;;;;5053537;28;20511;-63
2024/01/31 01:00:17;;;;;;;9.53;3.50;;;;;;;;;;5052079;28;20445;-62
2024/01/31 01:02:43;;;;;;;11.32;3.15;;;;;;;;;;5053154;28;20017;-62
2024/01/31 01:05:08;;;;;;;12.10;4.45;;;;;;;;;;5052166;28;20037;-62
2024/01/31 01:07:33;;;;;;;11.88;4.38;;;;;;;;;;5053257;28;20464;-62
2024/01/31 01:09:59;;;;;;;10.27;4.25;;;;;;;;;;5051961;28;20044;-63
2024/01/31 01:12:24;;;;;;;12.37;4.13;;;;;;;;;;5053593;28;20518;-62
2024/01/31 01:14:49;;;;;;;12.77;4.17;;;;;;;;;;5051511;28;20473;-62
2024/01/31 01:17:15;;;;;;;12.15;3.83;;;;;;;;;;5053702;28;20424;-62
2024/01/31 01:19:40;;;;;;;4.68;3.50;;;;;;;;;;5051637;28;20404;-62
2024/01/31 01:22:05;;;;;;;5.10;4.60;;;;;;;;;;5053509;28;20021;-62
2024/01/31 01:24:30;;;;;;;10.37;4.00;;;;;;;;;;5051373;28;20447;-62
2024/01/31 01:26:56;;;;;;;6.13;3.85;;;;;;;;;;5053429;28;20021;-62
2024/01/31 01:29:21;;;;;;;3.20;2.83;;;;;;;;;;5051656;28;20539;-62
2024/01/31 01:31:46;;;;;;;9.23;3.23;;;;;;;;;;5051908;28;20017;-62
2024/01/31 01:34:11;;;;;;;8.57;3.97;;;;;;;;;;5051842;28;20126;-62
2024/01/31 01:36:36;;;;;;;8.10;3.42;;;;;;;;;;5053110;28;20439;-62
2024/01/31 01:39:03;;;;;;;5.97;4.00;;;;;;;;;;5051290;28;20040;-59
2024/01/31 01:41:28;;;;;;;12.77;4.88;;;;;;;;;;5053109;28;20481;-62
2024/01/31 01:43:53;;;;;;;12.53;3.80;;;;;;;;;;5051213;28;20068;-63
2024/01/31 01:46:20;;;;;;;8.63;4.95;;;;;;;;;;5052367;28;20494;-62
2024/01/31 01:48:46;;;;;;;8.35;5.45;;;;;;;;;;5051186;28;20107;-63
2024/01/31 01:51:15;;;;;;;9.68;4.65;;;;;;;;;;5052856;28;20013;-63
2024/01/31 01:53:40;;;;;;;7.82;5.15;;;;;;;;;;5050592;28;20039;-62
2024/01/31 01:56:07;;;;;;;6.53;5.77;;;;;;;;;;5052688;28;20017;-62
2024/01/31 01:58:33;;;;;;;8.57;7.20;;;;;;;;;;5051358;28;20435;-62
2024/01/31 02:01:00;;;;;;;13.38;5.93;;;;;;;;;;5052354;28;20120;-63
2024/01/31 02:03:26;;;;;;;7.00;4.28;;;;;;;;;;5051484;28;20047;-62
2024/01/31 02:05:51;;;;;;;7.00;3.85;;;;;;;;;;5052302;28;20013;-62
2024/01/31 02:08:17;;;;;;;8.63;3.83;;;;;;;;;;5050761;28;20472;-62
2024/01/31 02:10:42;;;;;;;5.35;4.18;;;;;;;;;;5052333;28;20361;-62
2024/01/31 02:13:07;;;;;;;4.70;4.27;;;;;;;;;;5052432;28;20009;-63
2024/01/31 02:15:32;;;;;;;12.13;4.30;;;;;;;;;;5050559;28;20451;-62
2024/01/31 02:17:57;;;;;;;7.73;3.90;;;;;;;;;;5051956;28;20482;-62
2024/01/31 02:20:23;;;;;;;13.30;5.53;;;;;;;;;;5050697;28;20941;-63
2024/01/31 02:22:48;;;;;;;12.38;3.60;;;;;;;;;;5051862;28;20438;-63
2024/01/31 02:25:14;;;;;;;12.68;4.25;;;;;;;;;;5050707;28;20037;-63
2024/01/31 02:27:39;;;;;;;4.10;3.70;;;;;;;;;;5052036;28;20033;-63
2024/01/31 02:30:05;;;;;;;11.13;4.05;;;;;;;;;;5050196;28;20063;-63
2024/01/31 02:32:31;;;;;;;10.38;4.07;;;;;;;;;;5052297;28;20021;-63
2024/01/31 02:34:56;;;;;;;6.30;3.90;;;;;;;;;;5050364;28;20039;-63
2024/01/31 02:37:21;;;;;;;10.48;4.65;;;;;;;;;;5051567;28;20477;-64
2024/01/31 02:39:46;;;;;;;11.33;3.67;;;;;;;;;;5050452;28;20037;-64
2024/01/31 02:42:12;;;;;;;6.55;3.70;;;;;;;;;;5051173;28;20963;-64
2024/01/31 02:44:37;;;;;;;8.52;5.57;;;;;;;;;;5049744;28;20488;-63
2024/01/31 02:47:02;;;;;;;11.27;6.83;;;;;;;;;;5051724;28;20084;-63
2024/01/31 02:49:27;;;;;;;8.70;6.05;;;;;;;;;;5050239;28;20912;-63
2024/01/31 02:51:52;;;;;;;8.50;5.43;;;;;;;;;;5051125;28;20029;-63
2024/01/31 02:54:18;;;;;;;6.77;6.07;;;;;;;;;;5050106;28;20481;-63
2024/01/31 02:56:43;;;;;;;8.77;4.93;;;;;;;;;;5051131;28;20420;-63
2024/01/31 02:59:08;;;;;;;6.85;6.20;;;;;;;;;;5049883;28;20172;-63
2024/01/31 03:01:36;;;;;;;8.87;4.90;;;;;;;;;;5051531;28;20029;-63
2024/01/31 03:04:01;;;;;;;7.85;6.97;;;;;;;;;;5049791;28;20455;-62
2024/01/31 03:06:26;;;;;;;9.90;6.93;;;;;;;;;;5051080;28;20021;-63
2024/01/31 03:08:51;;;;;;;8.33;6.50;;;;;;;;;;5049684;28;21242;-63
2024/01/31 03:11:16;;;;;;;11.27;5.43;;;;;;;;;;5051266;28;20412;-62
2024/01/31 03:13:42;;;;;;;5.73;3.97;;;;;;;;;;5049172;28;20436;-62
2024/01/31 03:16:07;;;;;;;4.25;3.20;;;;;;;;;;5051384;28;21272;-63
2024/01/31 03:18:32;;;;;;;8.70;4.90;;;;;;;;;;5049869;28;20530;-62
2024/01/31 03:20:57;;;;;;;3.07;2.83;;;;;;;;;;5050621;28;20435;-63
2024/01/31 03:23:22;;;;;;;6.37;3.93;;;;;;;;;;5049725;28;20416;-63
2024/01/31 03:25:47;;;;;;;3.83;3.37;;;;;;;;;;5050657;28;20495;-63
2024/01/31 03:28:13;;;;;;;4.00;3.70;;;;;;;;;;5049571;28;20949;-62
2024/01/31 03:30:38;;;;;;;5.93;4.17;;;;;;;;;;5050882;28;20451;-63
2024/01/31 03:33:03;;;;;;;10.37;4.47;;;;;;;;;;5050742;28;20423;-63
2024/01/31 03:35:28;;;;;;;7.60;4.85;;;;;;;;;;5049195;28;20447;-62
2024/01/31 03:37:53;;;;;;;9.10;3.63;;;;;;;;;;5050784;28;20025;-62
2024/01/31 03:40:19;;;;;;;17.02;4.78;;;;;;;;;;5049472;28;20811;-62
2024/01/31 03:42:44;;;;;;;5.65;3.28;;;;;;;;;;5050759;28;20027;-63
2024/01/31 03:45:09;;;;;;;6.97;3.23;;;;;;;;;;5048814;28;20040;-63
2024/01/31 03:47:34;;;;;;;10.67;3.80;;;;;;;;;;5050681;28;20493;-63
2024/01/31 03:50:00;;;;;;;4.65;3.85;;;;;;;;;;5049098;28;20460;-63
2024/01/31 03:52:25;;;;;;;7.07;4.22;;;;;;;;;;5050479;28;20067;-63
2024/01/31 03:54:51;;;;;;;5.63;3.70;;;;;;;;;;5055057;28;20033;-63
2024/01/31 03:57:16;;;;;;;6.65;3.42;;;;;;;;;;5057450;28;20415;-63
2024/01/31 03:59:41;;;;;;;8.37;4.50;;;;;;;;;;5055516;28;20033;-63
2024/01/31 04:02:06;;;;;;;4.17;3.53;;;;;;;;;;5057325;28;20420;-62
2024/01/31 04:04:32;;;;;;;5.18;3.75;;;;;;;;;;5055828;28;20459;-62
2024/01/31 04:06:57;;;;;;;11.05;5.78;;;;;;;;;;5056705;28;20029;-62
2024/01/31 04:09:22;;;;;;;5.47;3.77;;;;;;;;;;5055710;28;20033;-62
2024/01/31 04:11:47;;;;;;;17.17;3.80;;;;;;;;;;5057111;28;20411;-62
2024/01/31 04:14:13;;;;;;;6.97;3.50;;;;;;;;;;5055315;28;21001;-63
2024/01/31 04:16:38;;;;;;;9.57;4.60;;;;;;;;;;5056862;28;20439;-62
2024/01/31 04:19:03;;;;;;;9.60;3.83;;;;;;;;;;5055879;28;20116;-62
2024/01/31 04:21:28;;;;;;;7.13;3.13;;;;;;;;;;5056843;28;20421;-62
2024/01/31 04:23:53;;;;;;;9.33;4.50;;;;;;;;;;5055318;28;21028;-62
2024/01/31 04:26:19;;;;;;;6.85;3.78;;;;;;;;;;5057378;28;20442;-62
2024/01/31 04:28:44;;;;;;;6.97;3.47;;;;;;;;;;5055219;28;20111;-62
2024/01/31 04:31:15;;;;;;;3.20;2.90;;;;;;;;;;5057008;28;20968;-63
2024/01/31 04:33:41;;;;;;;6.78;3.78;;;;;;;;;;5055507;28;20443;-63
2024/01/31 04:36:06;;;;;;;7.50;3.35;;;;;;;;;;5056823;28;20020;-63
2024/01/31 04:38:31;;;;;;;4.25;2.90;;;;;;;;;;5055255;28;20455;-63
2024/01/31 04:40:57;;;;;;;7.03;3.77;;;;;;;;;;5056887;28;20021;-64
2024/01/31 04:43:22;;;;;;;4.10;2.97;;;;;;;;;;5055325;28;20481;-64
2024/01/31 04:45:47;;;;;;;6.00;2.75;;;;;;;;;;5056004;28;20021;-64
2024/01/31 04:48:12;;;;;;;7.45;3.78;;;;;;;;;;5055787;28;20029;-63
2024/01/31 04:50:38;;;;;;;15.73;6.30;;;;;;;;;;5056268;28;20017;-64
2024/01/31 04:53:03;;;;;;;11.38;4.40;;;;;;;;;;5057202;28;20985;-64
2024/01/31 04:55:28;;;;;;;12.73;4.53;;;;;;;;;;5055468;28;20557;-64
2024/01/31 04:57:53;;;;;;;9.10;3.77;;;;;;;;;;5056200;28;20104;-64
2024/01/31 05:00:23;;;;;;;10.03;3.97;;;;;;;;;;5055428;28;20822;-64
2024/01/31 05:02:48;;;;;;;9.85;3.65;;;;;;;;;;5056883;28;20495;-64
2024/01/31 05:05:14;;;;;;;12.20;5.17;;;;;;;;;;5052460;28;20029;-60
2024/01/31 05:07:39;;;;;;;10.80;3.70;;;;;;;;;;5053314;28;20427;-62
2024/01/31 05:10:04;;;;;;;4.10;3.73;;;;;;;;;;5052155;28;20148;-63
2024/01/31 05:12:29;;;;;;;3.72;3.42;;;;;;;;;;5053187;28;20426;-68
2024/01/31 05:14:54;;;;;;;6.03;3.37;;;;;;;;;;5051737;28;20116;-63
2024/01/31 05:17:20;;;;;;;6.53;4.00;;;;;;;;;;5053653;28;20380;-63
2024/01/31 05:19:45;;;;;;;3.30;3.00;;;;;;;;;;5051291;28;20478;-63
2024/01/31 05:22:10;;;;;;;9.63;5.05;;;;;;;;;;5053603;28;20021;-63
2024/01/31 05:24:35;;;;;;;7.63;3.63;;;;;;;;;;5051406;28;20041;-62
2024/01/31 05:27:03;;;;;;;6.97;3.30;;;;;;;;;;5052783;28;20458;-62
2024/01/31 05:29:31;;;;;;;10.00;5.90;;;;;;;;;;5051505;28;20075;-62
2024/01/31 05:31:56;;;;;;;8.25;5.68;;;;;;;;;;5053300;28;20761;-62
2024/01/31 05:34:25;;;;;;;8.45;4.15;;;;;;;;;;5051082;28;20029;-63
2024/01/31 05:36:51;;;;;;;;;;;;;;;;;;5053466;28;20019;-63
2024/01/31 05:39:16;;;;;;;9.93;4.60;;;;;;;;;;5051291;28;20000;-62
2024/01/31 05:41:42;;;;;;;13.20;6.13;;;;;;;;;;5052146;28;20032;-63
2024/01/31 05:44:08;;;;;;;5.68;4.78;;;;;;;;;;5050680;28;20451;-63
2024/01/31 05:46:33;;;;;;;10.67;5.10;;;;;;;;;;5053057;28;20021;-63
2024/01/31 05:48:58;;;;;;;14.70;5.03;;;;;;;;;;5050802;28;20485;-63
2024/01/31 05:51:23;;;;;;;9.05;6.00;;;;;;;;;;5052938;28;20988;-63
2024/01/31 05:53:48;;;;;;;35.55;9.07;;;;;;;;;;5051201;28;20404;-63
2024/01/31 05:56:15;;;;;;;9.63;4.43;;;;;;;;;;5052402;28;20017;-62
2024/01/31 05:58:41;;;;;;;12.73;6.35;;;;;;;;;;5051104;28;20821;-63
2024/01/31 06:01:07;;;;;;;5.05;4.38;;;;;;;;;;5053007;28;20377;-63
2024/01/31 06:03:32;;;;;;;5.57;5.07;;;;;;;;;;5050825;28;20037;-62
2024/01/31 06:05:58;;;;;;;6.10;4.85;;;;;;;;;;5052167;28;20420;-62
2024/01/31 06:08:24;;;;;;;7.80;4.85;;;;;;;;;;5051263;28;20071;-62
2024/01/31 06:10:54;;;;;;;11.18;5.60;;;;;;;;;;5051877;28;20025;-62
2024/01/31 06:13:20;;;;;;;10.00;4.80;;;;;;;;;;5051640;28;20369;-62
2024/01/31 06:15:45;;;;;;;8.82;5.63;;;;;;;;;;5052440;28;20017;-62
2024/01/31 06:18:10;;;;;;;5.33;4.47;;;;;;;;;;5052170;28;20465;-63
2024/01/31 06:20:40;;;;;;;5.17;4.53;;;;;;;;;;5050634;28;20450;-63
2024/01/31 06:23:06;;;;;;;5.15;3.88;;;;;;;;;;5052555;28;20420;-62
2024/01/31 06:25:31;;;;;;;4.78;4.10;;;;;;;;;;5050684;28;20033;-62
2024/01/31 06:27:56;;;;;;;7.43;4.50;;;;;;;;;;5051570;28;20104;-62
2024/01/31 06:30:30;;;;;;;6.00;3.93;;;;;;;;;;5050608;28;20521;-62
2024/01/31 06:33:05;;;;;;;3.28;2.67;;;;;;;;;;5051884;28;20400;-62
2024/01/31 06:35:30;;;;;;;3.47;2.58;;;;;;;;;;5050540;28;20029;-62
2024/01/31 06:37:55;;;;;;;4.20;3.77;;;;;;;;;;5051849;28;20032;-62
2024/01/31 06:40:20;;;;;;;7.30;4.03;;;;;;;;;;5050387;28;20447;-62
2024/01/31 06:42:45;;;;;;;3.75;2.58;;;;;;;;;;5051491;28;20408;-62
2024/01/31 06:45:11;;;;;;;4.63;3.22;;;;;;;;;;5050237;28;20408;-62
2024/01/31 06:47:36;;;;;;;4.70;3.00;;;;;;;;;;5051870;28;20443;-62
2024/01/31 06:50:01;;;;;;;9.13;6.20;;;;;;;;;;5049501;28;20495;-62
2024/01/31 06:52:26;;;;;;;10.32;4.13;;;;;;;;;;5051695;28;20419;-62
2024/01/31 06:54:51;;;;;;;5.77;3.83;;;;;;;;;;5050210;28;20060;-62
2024/01/31 06:57:17;;;;;;;10.73;4.90;;;;;;;;;;5051290;28;20382;-62
2024/01/31 06:59:42;;;;;;;6.40;4.87;;;;;;;;;;5050262;28;20037;-61
2024/01/31 07:02:07;;;;;;;12.52;5.50;;;;;;;;;;5051759;28;20102;-62
2024/01/31 07:04:32;;;;;;;6.97;4.27;;;;;;;;;;5049587;28;20040;-61
2024/01/31 07:06:57;;;;;;;7.10;5.37;;;;;;;;;;5051167;28;20438;-61
2024/01/31 07:09:22;;;;;;;7.93;3.97;;;;;;;;;;5049987;28;20235;-61
2024/01/31 07:11:48;;;;;;;6.50;5.13;;;;;;;;;;5050869;28;20412;-61
2024/01/31 07:14:14;;;;;;;6.97;4.20;;;;;;;;;;5049851;28;20112;-61
2024/01/31 07:16:39;;;;;;;6.38;5.07;;;;;;;;;;5051315;28;20474;-61
2024/01/31 07:19:04;;;;;;;8.60;4.87;;;;;;;;;;5049398;28;20064;-62
2024/01/31 07:21:29;;;;;;;7.82;5.72;;;;;;;;;;5051723;28;20484;-62
2024/01/31 07:23:55;;;;;;;7.45;5.53;;;;;;;;;;5049309;28;20051;-63
2024/01/31 07:26:26;;;;;;;8.15;4.88;;;;;;;;;;5050940;28;20025;-58
2024/01/31 07:28:51;;;;;;;4.53;4.13;;;;;;;;;;5049313;28;20029;-60
2024/01/31 07:31:16;;;;;;;9.10;5.85;;;;;;;;;;5051128;28;20078;-59
2024/01/31 07:33:41;;;;;;;7.47;5.97;;;;;;;;;;5048992;28;20087;-58
2024/01/31 07:36:07;;;;;;;5.57;4.80;;;;;;;;;;5050984;28;20017;-58
2024/01/31 07:38:32;;;;;;;6.75;4.35;;;;;;;;;;5049671;28;20467;-59
2024/01/31 07:40:57;;;;;;;17.30;12.05;;;;;;;;;;5050332;28;20042;-59
2024/01/31 07:43:23;;;;;;;20.42;14.05;;;;;;;;;;5049429;28;20020;-59
2024/01/31 07:45:48;;;;;;;11.77;9.80;;;;;;;;;;5050553;28;20021;-58
2024/01/31 07:48:13;;;;;;;11.20;7.50;;;;;;;;;;5049070;28;20032;-58
2024/01/31 07:50:39;;;;;;;10.23;6.90;;;;;;;;;;5050300;28;20530;-59
2024/01/31 07:53:04;;;;;;;8.17;4.70;;;;;;;;;;5050857;28;20882;-58
2024/01/31 07:55:29;;;;;;;6.20;4.40;;;;;;;;;;5048883;28;20447;-58
2024/01/31 07:57:54;;;;;;;7.37;5.03;;;;;;;;;;5050472;28;20408;-59
2024/01/31 08:00:21;;;;;;;6.40;4.03;;;;;;;;;;5049497;28;20489;-58
2024/01/31 08:02:47;;;;;;;8.60;5.78;;;;;;;;;;5050337;28;20427;-58
2024/01/31 08:05:12;;;;;;;11.52;4.68;;;;;;;;;;5049085;28;20404;-58
2024/01/31 08:07:37;;;;;;;6.60;4.32;;;;;;;;;;5050844;28;20086;-58
2024/01/31 08:10:03;;;;;;;15.70;6.27;;;;;;;;;;5048947;28;20083;-58
2024/01/31 08:12:28;;;;;;;5.40;4.90;;;;;;;;;;5049003;28;20017;-58
2024/01/31 08:14:53;;;;;;;5.47;4.97;;;;;;;;;;5048698;28;20061;-58
2024/01/31 08:17:18;;;;;;;8.53;5.53;;;;;;;;;;5050043;28;20513;-58
2024/01/31 08:19:43;;;;;;;9.32;4.90;;;;;;;;;;5048886;28;20456;-58
2024/01/31 08:22:09;;;;;;;7.80;4.90;;;;;;;;;;5050837;28;20499;-59
2024/01/31 08:24:34;;;;;;;6.82;4.70;;;;;;;;;;5048551;28;20586;-58
2024/01/31 08:26:59;;;;;;;6.27;5.23;;;;;;;;;;5048922;28;20024;-58
2024/01/31 08:29:24;;;;;;;5.93;5.37;;;;;;;;;;5048934;28;20459;-58
2024/01/31 08:31:49;;;;;;;10.00;5.00;;;;;;;;;;5050552;28;20044;-58
2024/01/31 08:34:15;;;;;;;8.25;4.60;;;;;;;;;;5068960;28;20037;-58
2024/01/31 08:36:40;;;;;;;4.60;4.13;;;;;;;;;;5070374;28;20025;-58
2024/01/31 08:39:08;;;;;;;7.05;4.38;;;;;;;;;;5068341;28;20032;-58
2024/01/31 08:41:33;;;;;;;8.93;6.70;;;;;;;;;;5068470;28;20021;-59
2024/01/31 08:43:58;;;;;;;9.00;4.43;;;;;;;;;;5049708;28;20451;-59
2024/01/31 08:46:26;;;;;;;7.50;5.53;;;;;;;;;;5052540;28;20021;-59
2024/01/31 08:48:51;;;;;;;9.88;7.95;;;;;;;;;;5051526;28;20466;-58
2024/01/31 08:51:16;;;;;;;10.73;5.28;;;;;;;;;;5053523;28;20016;-59
2024/01/31 08:53:42;;;;;;;8.45;5.30;;;;;;;;;;5052029;28;20033;-59
2024/01/31 08:56:08;;;;;;;6.25;5.00;;;;;;;;;;5053865;28;20052;-58
2024/01/31 08:58:33;;;;;;;10.95;4.53;;;;;;;;;;5052447;28;20094;-59
2024/01/31 09:00:59;;;;;;;5.00;4.53;;;;;;;;;;5053415;28;20104;-59
2024/01/31 09:03:25;;;;;;;12.20;5.03;;;;;;;;;;5052041;28;20530;-58
2024/01/31 09:05:50;;;;;;;8.02;6.85;;;;;;;;;;5053338;28;20475;-59
2024/01/31 09:08:15;;;;;;;11.10;7.27;;;;;;;;;;5052380;28;20035;-58
2024/01/31 09:10:41;;;;;;;8.23;5.03;;;;;;;;;;5053081;28;20443;-59
2024/01/31 09:13:06;;;;;;;7.65;6.85;;;;;;;;;;5053466;28;20447;-58
2024/01/31 09:15:31;;;;;;;5.27;4.70;;;;;;;;;;5052051;28;20112;-58
2024/01/31 09:17:56;;;;;;;10.73;5.20;;;;;;;;;;5052942;28;20013;-59
2024/01/31 09:20:21;;;;;;;6.43;5.88;;;;;;;;;;5052204;28;20037;-59
2024/01/31 09:22:47;;;;;;;7.73;6.00;;;;;;;;;;5053159;28;20032;-58
2024/01/31 09:25:14;;;;;;;7.20;5.97;;;;;;;;;;5051575;28;20067;-59
2024/01/31 09:27:40;;;;;;;8.82;5.18;;;;;;;;;;5053230;28;20438;-59
2024/01/31 09:30:05;;;;;;;6.63;6.03;;;;;;;;;;5051803;28;20037;-59
2024/01/31 09:32:30;;;;;;;6.47;4.93;;;;;;;;;;5052985;28;20105;-59
2024/01/31 09:34:56;;;;;;;9.17;6.90;;;;;;;;;;5051497;28;20087;-59
2024/01/31 09:37:21;;;;;;;7.32;6.20;;;;;;;;;;5052953;28;20428;-59
2024/01/31 09:39:46;;;;;;;8.53;4.97;;;;;;;;;;5051175;28;20040;-59
2024/01/31 09:42:12;;;;;;;13.77;7.03;;;;;;;;;;5053213;28;20081;-59
2024/01/31 09:44:38;;;;;;;7.65;6.85;;;;;;;;;;5051131;28;20071;-58
2024/01/31 09:47:03;;;;;;;19.20;8.57;;;;;;;;;;5052661;28;20135;-59
2024/01/31 09:49:29;;;;;;;9.15;6.38;;;;;;;;;;5051569;28;20140;-59
2024/01/31 09:51:59;;;;;;;10.57;6.65;;;;;;;;;;5052216;28;20040;-59
2024/01/31 09:54:24;;;;;;;9.35;6.97;;;;;;;;;;5051175;28;20592;-59
2024/01/31 09:56:49;;;;;;;10.70;8.45;;;;;;;;;;5052647;28;20100;-59
2024/01/31 09:59:15;;;;;;;7.80;6.37;;;;;;;;;;5051452;28;20033;-58
2024/01/31 10:01:41;;;;;;;7.57;6.43;;;;;;;;;;5052032;28;20154;-59
2024/01/31 10:04:06;;;;;;;9.55;6.22;;;;;;;;;;5051270;28;20053;-59
2024/01/31 10:06:31;;;;;;;6.63;6.03;;;;;;;;;;5052680;28;20582;-59
2024/01/31 10:08:57;;;;;;;9.65;6.78;;;;;;;;;;5050637;28;21007;-59
2024/01/31 10:11:24;;;;;;;6.88;6.18;;;;;;;;;;5052846;28;20111;-59
2024/01/31 10:13:49;;;;;;;12.25;6.72;;;;;;;;;;5050839;28;20068;-59
2024/01/31 10:16:15;;;;;;;8.00;6.60;;;;;;;;;;5052137;28;20040;-59
2024/01/31 10:18:40;;;;;;;7.15;6.10;;;;;;;;;;5050682;28;20467;-60
2024/01/31 10:21:05;;;;;;;8.88;7.93;;;;;;;;;;5051377;28;20017;-58
2024/01/31 10:23:30;;;;;;;6.50;5.50;;;;;;;;;;5051609;28;20025;-58
2024/01/31 10:25:56;;;;;;;7.60;5.87;;;;;;;;;;5066569;28;20413;-58
2024/01/31 10:28:21;;;;;;;13.03;7.03;;;;;;;;;;5069370;28;20016;-58
2024/01/31 10:30:47;;;;;;;6.43;5.93;;;;;;;;;;5051330;28;20078;-58
2024/01/31 10:33:13;;;;;;;7.63;6.90;;;;;;;;;;5052060;28;20070;-58
2024/01/31 10:35:39;;;;;;;7.07;6.53;;;;;;;;;;5050519;28;20041;-58
2024/01/31 10:38:05;;;;;;;8.38;6.93;;;;;;;;;;5051618;28;20041;-58
2024/01/31 10:40:33;;;;;;;9.82;7.13;;;;;;;;;;5050311;28;20082;-58
2024/01/31 10:42:58;;;;;;;11.77;8.30;;;;;;;;;;5051793;28;20478;-58
2024/01/31 10:45:23;;;;;;;7.75;6.80;;;;;;;;;;5049926;28;20152;-58
2024/01/31 10:47:49;;;;;;;7.85;7.15;;;;;;;;;;5051584;28;20196;-58
2024/01/31 10:50:14;;;;;;;8.32;7.40;;;;;;;;;;5049989;28;20033;-58
2024/01/31 10:52:40;;;;;;;9.15;6.63;;;;;;;;;;5051098;28;20100;-58
2024/01/31 10:55:06;;;;;;;7.28;6.57;;;;;;;;;;5050018;28;20511;-58
2024/01/31 10:57:32;;;;;;;7.07;5.95;;;;;;;;;;5051740;28;20017;-58
2024/01/31 10:59:58;;;;;;;7.85;7.13;;;;;;;;;;5049591;28;20132;-58
2024/01/31 11:02:33;;;;;;;8.38;6.95;;;;;;;;;;5051342;28;20354;-58
2024/01/31 11:05:01;;;;;;;12.00;8.35;;;;;;;;;;5049403;28;20513;-58
2024/01/31 11:07:26;;;;;;;9.88;7.82;;;;;;;;;;5050348;28;20032;-58
2024/01/31 11:09:52;;;;;;;9.48;6.75;;;;;;;;;;5048226;28;20036;-58
2024/01/31 11:12:17;;;;;;;9.15;8.30;;;;;;;;;;5051489;28;20021;-58
2024/01/31 11:14:44;;;;;;;9.18;8.13;;;;;;;;;;5049289;28;20029;-58
2024/01/31 11:17:09;;;;;;;10.43;7.65;;;;;;;;;;5050635;28;20013;-58
2024/01/31 11:19:43;;;;;;;8.15;7.45;;;;;;;;;;5049672;28;20033;-58
2024/01/31 11:22:09;;;;;;;9.50;6.30;;;;;;;;;;5050892;28;20017;-58
2024/01/31 11:24:34;;;;;;;9.38;6.85;;;;;;;;;;5049145;28;20052;-58
2024/01/31 11:27:02;;;;;;;14.30;7.93;;;;;;;;;;5050628;28;20040;-58
2024/01/31 11:29:29;;;;;;;9.52;8.57;;;;;;;;;;5048950;28;20041;-58
2024/01/31 11:31:54;;;;;;;11.82;9.07;;;;;;;;;;5050698;28;20021;-58
2024/01/31 11:34:20;;;;;;;7.67;6.87;;;;;;;;;;5049595;28;20102;-58
2024/01/31 11:36:45;;;;;;;8.90;7.10;;;;;;;;;;5050659;28;20783;-59
2024/01/31 11:39:10;;;;;;;16.10;9.00;;;;;;;;;;5049444;28;21032;-59
2024/01/31 11:41:35;;;;;;;10.77;7.13;;;;;;;;;;5050706;28;20017;-58
2024/01/31 11:44:00;;;;;;;8.97;7.77;;;;;;;;;;5048703;28;20545;-58
2024/01/31 11:46:26;;;;;;;8.43;7.47;;;;;;;;;;5050796;28;20885;-58
2024/01/31 11:48:53;;;;;;;9.65;6.15;;;;;;;;;;5049296;28;21183;-58
2024/01/31 11:51:18;;;;;;;8.05;6.22;;;;;;;;;;5050602;28;20075;-58
2024/01/31 11:53:43;;;;;;;33.90;9.37;;;;;;;;;;5049055;28;20029;-58
2024/01/31 11:56:09;;;;;;;10.20;7.47;;;;;;;;;;5051044;28;20415;-58
2024/01/31 11:58:36;;;;;;;11.32;9.68;;;;;;;;;;5049206;28;21022;-58
2024/01/31 12:01:02;;;;;;;9.95;7.93;;;;;;;;;;5051036;28;20056;-58
2024/01/31 12:03:27;;;;;;;12.27;8.00;;;;;;;;;;5049633;28;20053;-58
2024/01/31 12:05:59;;;;;;;7.37;6.63;;;;;;;;;;5050152;28;20021;-58
2024/01/31 12:08:28;;;;;;;9.93;8.43;;;;;;;;;;5049076;28;20021;-58
2024/01/31 12:10:54;;;;;;;8.25;6.82;;;;;;;;;;5050360;28;20056;-59
2024/01/31 12:13:20;;;;;;;16.08;8.30;;;;;;;;;;5049533;28;20055;-59
2024/01/31 12:15:46;;;;;;;9.32;7.63;;;;;;;;;;5053293;28;20453;-58
2024/01/31 12:18:12;;;;;;;14.80;9.75;;;;;;;;;;5054677;28;20017;-59
2024/01/31 12:20:37;;;;;;;14.63;9.35;;;;;;;;;;5052852;28;20124;-58
2024/01/31 12:23:02;;;;;;;10.47;7.93;;;;;;;;;;5054195;28;20687;-58
2024/01/31 12:25:27;;;;;;;11.53;9.73;;;;;;;;;;5053048;28;20037;-58
2024/01/31 12:27:53;;;;;;;12.00;10.00;;;;;;;;;;5054215;28;20407;-58
2024/01/31 12:30:18;;;;;;;16.07;8.87;;;;;;;;;;5052645;28;20613;-58
2024/01/31 12:32:43;;;;;;;12.70;10.18;;;;;;;;;;5054315;28;20420;-58
2024/01/31 12:35:08;;;;;;;16.08;10.35;;;;;;;;;;5052936;28;20082;-58
2024/01/31 12:37:33;;;;;;;15.40;9.93;;;;;;;;;;5053843;28;20534;-58
2024/01/31 12:39:59;;;;;;;10.43;9.27;;;;;;;;;;5052647;28;20040;-58
2024/01/31 12:42:24;;;;;;;12.27;9.83;;;;;;;;;;5054074;28;20017;-58
2024/01/31 12:44:49;;;;;;;16.33;11.68;;;;;;;;;;5051997;28;20502;-59
2024/01/31 12:47:14;;;;;;;13.95;10.43;;;;;;;;;;5052969;28;20146;-58
2024/01/31 12:49:41;;;;;;;19.83;11.15;;;;;;;;;;5050955;28;20116;-58
2024/01/31 12:52:06;;;;;;;19.67;13.98;;;;;;;;;;5052313;28;20021;-58
2024/01/31 12:54:31;;;;;;;18.20;14.43;;;;;;;;;;5051240;28;20036;-58
2024/01/31 12:56:56;;;;;;;18.67;14.43;;;;;;;;;;5052508;28;20032;-59
2024/01/31 12:59:23;;;;;;;18.90;13.03;;;;;;;;;;5050737;28;20036;-58
2024/01/31 13:01:48;;;;;;;15.80;13.48;;;;;;;;;;5052317;28;20416;-58
2024/01/31 13:04:14;;;;;;;21.40;13.73;;;;;;;;;;5051439;28;20508;-58
2024/01/31 13:06:39;;;;;;;19.03;13.87;;;;;;;;;;5052683;28;20025;-59
2024/01/31 13:09:04;;;;;;;22.20;15.85;;;;;;;;;;5051784;28;20463;-59
2024/01/31 13:11:29;;;;;;;19.90;12.40;;;;;;;;;;5053414;28;20074;-58
2024/01/31 13:13:54;;;;;;;14.33;12.80;;;;;;;;;;5051460;28;20439;-59
2024/01/31 13:16:19;;;;;;;20.67;12.33;;;;;;;;;;5052154;28;20028;-59
2024/01/31 13:18:45;;;;;;;17.30;15.27;;;;;;;;;;5051635;28;20029;-58
2024/01/31 13:21:10;;;;;;;16.83;12.50;;;;;;;;;;5052864;28;20438;-58
2024/01/31 13:23:35;;;;;;;20.27;12.93;;;;;;;;;;5051953;28;20029;-58
2024/01/31 13:26:01;;;;;;;16.65;11.40;;;;;;;;;;5052273;28;20432;-58
2024/01/31 13:28:26;;;;;;;16.10;12.73;;;;;;;;;;5040678;28;20022;-59
2024/01/31 13:30:51;;;;;;;22.70;14.37;;;;;;;;;;5032771;28;20025;-59
2024/01/31 13:33:17;;;;;;;18.02;13.45;;;;;;;;;;5052040;28;20470;-58
2024/01/31 13:35:42;;;;;;;22.97;13.27;;;;;;;;;;5052740;28;20013;-58
2024/01/31 13:38:07;;;;;;;14.00;11.77;;;;;;;;;;5052980;28;20451;-59
2024/01/31 13:40:32;;;;;;;18.77;13.10;;;;;;;;;;5051803;28;20037;-58
2024/01/31 13:42:57;;;;;;;18.57;12.27;;;;;;;;;;5063624;28;20505;-58
2024/01/31 13:45:22;;;;;;;15.20;12.87;;;;;;;;;;5071439;28;20516;-59
2024/01/31 13:47:48;;;;;;;15.70;13.13;;;;;;;;;;5066764;28;20601;-59
2024/01/31 13:50:13;;;;;;;23.23;13.68;;;;;;;;;;5055089;28;20486;-58
2024/01/31 13:52:39;;;;;;;18.67;15.48;;;;;;;;;;5065087;28;20107;-58
2024/01/31 13:55:04;;;;;;;16.80;12.68;;;;;;;;;;5071249;28;20032;-58
2024/01/31 13:57:29;;;;;;;17.30;11.65;;;;;;;;;;5069425;28;20024;-58
2024/01/31 13:59:56;;;;;;;19.10;16.27;;;;;;;;;;5050659;28;20043;-59
2024/01/31 14:02:21;;;;;;;22.27;15.50;;;;;;;;;;5052647;28;21091;-59
2024/01/31 14:04:47;;;;;;;16.63;14.27;;;;;;;;;;5066230;28;20033;-59
2024/01/31 14:07:12;;;;;;;16.40;13.40;;;;;;;;;;5072549;28;20426;-58
2024/01/31 14:09:37;;;;;;;18.27;15.07;;;;;;;;;;5070669;28;20481;-59
2024/01/31 14:12:03;;;;;;;17.20;14.07;;;;;;;;;;5072000;28;20569;-58
2024/01/31 14:14:29;;;;;;;19.23;15.27;;;;;;;;;;5071028;28;20500;-58
2024/01/31 14:16:54;;;;;;;18.73;14.57;;;;;;;;;;5072074;28;20047;-58
2024/01/31 14:19:19;;;;;;;16.92;15.13;;;;;;;;;;5070426;28;20391;-58
2024/01/31 14:21:44;;;;;;;20.10;16.05;;;;;;;;;;5065793;28;20017;-58
2024/01/31 14:24:09;;;;;;;21.50;15.33;;;;;;;;;;5035615;28;20068;-58
2024/01/31 14:26:35;;;;;;;17.25;15.45;;;;;;;;;;5032301;28;20472;-58